Time;durP1;ratioP1;P1;durP2;ratioP2;P2;SDS_P1;SDS_P2;PMS_P1;PMS_P2;Temp;Humidity;BMP_temperature;BMP_pressure;BME280_temperature;BME280_humidity;BME280_pressure;Samples;Min_cycle;Max_cycle;Signal;HPM_P1;HPM_P2
2022/01/13 00:01:54;;;;;;;0.10;0.10;;;5.20;99.90;;;;;;5131466;28;20043;-81
2022/01/13 00:04:21;;;;;;;0.10;0.10;;;5.20;99.90;;;;;;5131463;28;20101;-80
2022/01/13 00:06:48;;;;;;;0.10;0.10;;;5.20;99.90;;;;;;5131643;28;20044;-80
2022/01/13 00:09:16;;;;;;;0.10;0.10;;;5.20;99.90;;;;;;5130906;28;20065;-80
2022/01/13 00:11:46;;;;;;;0.10;0.10;;;5.20;99.90;;;;;;5148651;28;20130;-80
2022/01/13 00:14:26;;;;;;;0.10;0.10;;;5.20;99.90;;;;;;5114727;28;20035;-81
2022/01/13 00:22:45;;;;;;;0.10;0.10;;;5.60;99.90;;;;;;5116036;28;20059;-80
2022/01/13 00:25:14;;;;;;;0.35;0.25;;;5.30;99.90;;;;;;5119288;28;20036;-80
2022/01/13 00:27:47;;;;;;;0.10;0.10;;;5.20;99.90;;;;;;5131413;28;20131;-81
2022/01/13 00:30:17;;;;;;;0.10;0.10;;;5.70;99.90;;;;;;5099107;28;20043;-79
2022/01/13 00:32:45;;;;;;;0.10;0.10;;;5.20;99.90;;;;;;5115181;28;20039;-80
2022/01/13 00:35:12;;;;;;;0.10;0.10;;;5.20;99.90;;;;;;5131265;28;20046;-80
2022/01/13 00:37:40;;;;;;;0.10;0.10;;;5.20;99.90;;;;;;5114478;28;20408;-81
2022/01/13 00:40:08;;;;;;;0.10;0.10;;;5.20;99.90;;;;;;5114863;28;20037;-79
2022/01/13 00:42:35;;;;;;;0.00;0.00;;;5.20;99.90;;;;;;5130662;28;20039;-80
2022/01/13 00:45:03;;;;;;;0.10;0.10;;;5.20;99.90;;;;;;5097379;28;20038;-80
2022/01/13 00:47:30;;;;;;;0.10;0.10;;;5.20;99.90;;;;;;5130907;28;20035;-79
2022/01/13 00:49:58;;;;;;;0.30;0.30;;;5.20;99.90;;;;;;5147566;28;20073;-80
2022/01/13 00:52:25;;;;;;;0.10;0.10;;;5.20;99.90;;;;;;5130037;28;20561;-80
2022/01/13 00:54:53;;;;;;;0.10;0.10;;;5.10;99.90;;;;;;5130758;28;20381;-81
2022/01/13 00:57:19;;;;;;;0.10;0.10;;;5.10;99.90;;;;;;5113728;28;20039;-80
2022/01/13 00:59:46;;;;;;;0.10;0.10;;;5.10;99.90;;;;;;5113972;28;20035;-80
2022/01/13 01:02:13;;;;;;;0.10;0.10;;;5.60;99.90;;;;;;5130617;28;20401;-80
2022/01/13 01:04:39;;;;;;;0.10;0.10;;;5.10;99.90;;;;;;5128990;28;20040;-81
2022/01/13 01:07:06;;;;;;;0.10;0.10;;;5.20;99.90;;;;;;5130217;28;20039;-80
2022/01/13 01:09:46;;;;;;;0.10;0.10;;;5.10;99.90;;;;;;5130277;28;20107;-80
2022/01/13 01:12:14;;;;;;;0.10;0.10;;;5.10;99.90;;;;;;5100490;28;20039;-80
2022/01/13 01:14:46;;;;;;;0.10;0.10;;;5.10;99.90;;;;;;5147042;28;20221;-80
2022/01/13 01:17:15;;;;;;;0.10;0.10;;;5.10;99.90;;;;;;5114290;28;20039;-80
2022/01/13 01:19:48;;;;;;;0.10;0.10;;;5.40;99.90;;;;;;5129829;28;20043;-80
2022/01/13 01:22:37;;;;;;;0.30;0.30;;;5.10;99.90;;;;;;5113773;28;20062;-80
2022/01/13 01:25:37;;;;;;;0.10;0.10;;;5.40;99.90;;;;;;5130262;28;20047;-80
2022/01/13 01:27:56;;;;;;;0.30;0.30;;;5.10;99.90;;;;;;5119485;28;20048;-79
2022/01/13 01:32:50;;;;;;;0.95;0.45;;;5.10;99.90;;;;;;5146973;28;20130;-80
2022/01/13 01:35:18;;;;;;;0.10;0.10;;;5.10;99.90;;;;;;5096586;28;20118;-80
2022/01/13 01:37:46;;;;;;;0.10;0.10;;;5.40;99.90;;;;;;5096335;28;20039;-80
2022/01/13 01:40:14;;;;;;;0.10;0.10;;;5.10;99.90;;;;;;5146718;28;20089;-79
2022/01/13 01:42:41;;;;;;;0.10;0.10;;;5.10;99.90;;;;;;5112758;28;20075;-79
2022/01/13 01:45:09;;;;;;;0.10;0.10;;;5.10;99.90;;;;;;5130126;28;20039;-80
2022/01/13 01:47:36;;;;;;;0.10;0.10;;;5.10;99.90;;;;;;5146626;28;20093;-80
2022/01/13 01:50:16;;;;;;;0.10;0.10;;;5.10;99.90;;;;;;5129672;28;20096;-80
2022/01/13 01:52:46;;;;;;;0.20;0.20;;;5.10;99.90;;;;;;5129552;28;20504;-80
2022/01/13 01:55:13;;;;;;;0.17;0.17;;;5.10;99.90;;;;;;5146760;28;20051;-80
2022/01/13 01:57:42;;;;;;;0.10;0.10;;;5.20;99.90;;;;;;5129592;28;20481;-79
2022/01/13 02:00:12;;;;;;;0.00;0.00;;;5.20;99.90;;;;;;5096717;28;20044;-80
2022/01/13 02:02:41;;;;;;;0.10;0.10;;;5.10;99.90;;;;;;5129273;28;20039;-79
2022/01/13 02:05:08;;;;;;;0.10;0.10;;;5.10;99.90;;;;;;5112919;28;20051;-80
2022/01/13 02:07:36;;;;;;;0.10;0.10;;;5.10;99.90;;;;;;5129344;28;20050;-79
2022/01/13 02:10:04;;;;;;;0.10;0.10;;;5.10;99.90;;;;;;5129610;28;20048;-80
2022/01/13 02:12:43;;;;;;;0.10;0.10;;;5.10;99.90;;;;;;5129090;28;20400;-80
2022/01/13 02:17:39;;;;;;;0.10;0.10;;;5.10;99.90;;;;;;5152637;28;20039;-79
2022/01/13 02:20:08;;;;;;;0.10;0.10;;;5.00;99.90;;;;;;5119840;28;20042;-80
2022/01/13 02:22:36;;;;;;;0.08;0.08;;;5.10;99.90;;;;;;5135826;28;20062;-80
2022/01/13 02:25:04;;;;;;;0.10;0.10;;;5.40;99.90;;;;;;5136534;28;20051;-80
2022/01/13 02:27:31;;;;;;;0.10;0.10;;;5.00;99.90;;;;;;5118967;28;20044;-80
2022/01/13 02:29:57;;;;;;;0.10;0.10;;;5.00;99.90;;;;;;5102571;28;20041;-80
2022/01/13 02:32:24;;;;;;;0.10;0.10;;;5.00;99.90;;;;;;5119056;28;20051;-80
2022/01/13 02:34:51;;;;;;;0.10;0.10;;;5.00;99.90;;;;;;5102036;28;20042;-80
2022/01/13 02:37:17;;;;;;;0.10;0.10;;;5.00;99.90;;;;;;5152956;28;20400;-80
2022/01/13 02:39:46;;;;;;;0.10;0.10;;;5.00;99.90;;;;;;5102461;28;20691;-81
2022/01/13 02:42:14;;;;;;;0.10;0.10;;;5.00;99.90;;;;;;5119123;28;20075;-80
2022/01/13 02:45:05;;;;;;;0.10;0.10;;;5.80;99.90;;;;;;5118910;28;20066;-80
2022/01/13 02:50:02;;;;;;;0.10;0.10;;;5.00;99.90;;;;;;5153004;28;20047;-80
2022/01/13 02:52:28;;;;;;;0.10;0.10;;;5.00;99.90;;;;;;5152881;28;20101;-80
2022/01/13 02:54:55;;;;;;;0.52;0.20;;;5.00;99.90;;;;;;5135790;28;20027;-80
2022/01/13 02:57:22;;;;;;;0.03;0.03;;;5.00;99.90;;;;;;5135899;28;20126;-79
2022/01/13 02:59:48;;;;;;;0.10;0.10;;;5.80;99.90;;;;;;5135426;28;20108;-80
2022/01/13 03:02:15;;;;;;;0.10;0.10;;;5.00;99.90;;;;;;5119108;28;20043;-80
2022/01/13 03:04:48;;;;;;;0.10;0.10;;;5.10;99.90;;;;;;5135720;28;20078;-79
2022/01/13 03:07:15;;;;;;;0.10;0.10;;;5.00;99.90;;;;;;5135359;28;20039;-80
2022/01/13 03:09:42;;;;;;;0.10;0.10;;;5.00;99.90;;;;;;5135695;28;20563;-79
2022/01/13 03:12:10;;;;;;;0.10;0.10;;;5.20;99.90;;;;;;5152482;28;20122;-80
2022/01/13 03:14:37;;;;;;;0.10;0.10;;;5.00;99.90;;;;;;5152646;28;20039;-80
2022/01/13 03:17:04;;;;;;;0.10;0.10;;;5.00;99.90;;;;;;5135860;28;20409;-79
2022/01/13 03:19:31;;;;;;;0.10;0.10;;;5.40;99.90;;;;;;5118567;28;20039;-80
2022/01/13 03:21:58;;;;;;;0.10;0.10;;;5.00;99.90;;;;;;5152060;28;20138;-80
2022/01/13 03:24:26;;;;;;;0.10;0.10;;;5.00;99.90;;;;;;5118744;28;20107;-80
2022/01/13 03:26:54;;;;;;;0.10;0.10;;;5.50;99.90;;;;;;5118060;28;20081;-80
2022/01/13 03:29:22;;;;;;;0.10;0.10;;;5.10;99.90;;;;;;5115102;28;20050;-80
2022/01/13 03:31:49;;;;;;;0.10;0.10;;;5.00;99.90;;;;;;5099158;28;20084;-80
2022/01/13 03:34:16;;;;;;;0.10;0.10;;;5.20;99.90;;;;;;5132413;28;20035;-80
2022/01/13 03:36:44;;;;;;;0.10;0.10;;;5.10;99.90;;;;;;5149042;28;20136;-80
2022/01/13 03:39:13;;;;;;;0.10;0.10;;;5.40;99.90;;;;;;5132019;28;20042;-79
2022/01/13 03:41:40;;;;;;;0.10;0.10;;;5.30;99.90;;;;;;5131434;28;20508;-79
2022/01/13 03:44:16;;;;;;;0.10;0.10;;;5.10;99.90;;;;;;5149103;28;20411;-80
2022/01/13 03:46:44;;;;;;;0.10;0.10;;;5.10;99.90;;;;;;5132066;28;20092;-79
2022/01/13 03:49:10;;;;;;;0.10;0.10;;;5.10;99.90;;;;;;5149537;28;20094;-80
2022/01/13 03:51:58;;;;;;;0.10;0.10;;;5.20;99.90;;;;;;5131951;28;20079;-80
2022/01/13 03:54:34;;;;;;;0.10;0.10;;;5.10;99.90;;;;;;5149341;28;20047;-80
2022/01/13 03:57:13;;;;;;;0.10;0.10;;;5.20;99.90;;;;;;5131273;28;20205;-81
2022/01/13 04:00:30;;;;;;;0.10;0.10;;;5.10;99.90;;;;;;5150718;27;20511;-80
2022/01/13 04:02:56;;;;;;;0.10;0.10;;;5.10;99.90;;;;;;5157351;27;20051;-81
2022/01/13 04:05:23;;;;;;;0.20;0.20;;;5.10;99.90;;;;;;5132040;28;20415;-80
2022/01/13 04:07:50;;;;;;;0.10;0.10;;;5.10;99.90;;;;;;5114591;28;20496;-80
2022/01/13 04:11:02;;;;;;;0.20;0.20;;;5.40;99.90;;;;;;5115130;28;20049;-81
2022/01/13 04:13:53;;;;;;;0.10;0.10;;;5.10;99.90;;;;;;5148736;28;20039;-80
2022/01/13 04:16:27;;;;;;;0.10;0.10;;;5.30;99.90;;;;;;5165817;27;20035;-81
2022/01/13 04:18:59;;;;;;;0.43;0.43;;;5.10;99.90;;;;;;5131188;28;20097;-81
2022/01/13 04:21:26;;;;;;;0.10;0.10;;;5.10;99.90;;;;;;5148505;28;20131;-81
2022/01/13 04:23:56;;;;;;;0.10;0.10;;;5.10;99.90;;;;;;5114184;28;20789;-81
2022/01/13 04:26:30;;;;;;;0.10;0.10;;;5.00;99.90;;;;;;5148343;28;20058;-80
2022/01/13 04:29:16;;;;;;;0.20;0.20;;;5.00;99.90;;;;;;5165112;27;20073;-80
2022/01/13 04:31:45;;;;;;;0.10;0.10;;;5.00;99.90;;;;;;5148329;28;20078;-80
2022/01/13 04:34:13;;;;;;;0.38;0.38;;;4.90;99.90;;;;;;5182130;27;20057;-80
2022/01/13 04:36:40;;;;;;;0.10;0.10;;;5.70;99.90;;;;;;5131332;28;20046;-81
2022/01/13 04:39:08;;;;;;;0.10;0.10;;;5.00;99.90;;;;;;5164840;27;20035;-80
2022/01/13 04:41:37;;;;;;;0.03;0.03;;;5.10;99.90;;;;;;5131548;28;20031;-80
2022/01/13 04:44:09;;;;;;;0.10;0.10;;;4.90;99.90;;;;;;5131058;28;20122;-81
2022/01/13 04:46:36;;;;;;;0.10;0.10;;;4.90;99.90;;;;;;5147843;28;20044;-80
2022/01/13 04:49:05;;;;;;;0.20;0.20;;;4.90;99.90;;;;;;5113445;28;20043;-81
2022/01/13 04:51:32;;;;;;;0.20;0.20;;;5.20;99.90;;;;;;5130503;28;20404;-81
2022/01/13 04:53:59;;;;;;;0.10;0.10;;;4.80;99.90;;;;;;5146923;28;20034;-80
2022/01/13 04:56:29;;;;;;;0.10;0.10;;;4.80;99.90;;;;;;5113628;28;20036;-80
2022/01/13 04:58:59;;;;;;;0.10;0.10;;;4.80;99.90;;;;;;5130349;28;20184;-80
2022/01/13 05:01:26;;;;;;;0.10;0.10;;;4.80;99.90;;;;;;5130689;28;20088;-81
2022/01/13 05:03:52;;;;;;;0.10;0.10;;;4.80;99.90;;;;;;5113957;28;20126;-81
2022/01/13 05:06:19;;;;;;;0.13;0.13;;;4.80;99.90;;;;;;5146878;28;20431;-81
2022/01/13 05:08:46;;;;;;;0.10;0.10;;;5.20;99.90;;;;;;5147428;28;20176;-80
2022/01/13 05:11:14;;;;;;;0.10;0.10;;;4.80;99.90;;;;;;5130190;28;20530;-80
2022/01/13 05:13:41;;;;;;;0.10;0.10;;;5.40;99.90;;;;;;5130116;28;20106;-81
2022/01/13 05:16:15;;;;;;;0.10;0.10;;;4.80;99.90;;;;;;5130173;28;20035;-81
2022/01/13 05:18:49;;;;;;;0.10;0.10;;;4.80;99.90;;;;;;5115687;28;20075;-80
2022/01/13 05:24:05;;;;;;;0.10;0.10;;;4.80;99.90;;;;;;5123235;28;20044;-80
2022/01/13 05:26:32;;;;;;;0.10;0.10;;;4.80;99.90;;;;;;5113164;28;20046;-80
2022/01/13 05:28:59;;;;;;;0.10;0.10;;;4.80;99.90;;;;;;5129775;28;20036;-80
2022/01/13 05:31:26;;;;;;;0.10;0.10;;;4.80;99.90;;;;;;5146793;28;20081;-79
2022/01/13 05:33:52;;;;;;;0.10;0.10;;;5.40;99.90;;;;;;5146973;28;20043;-80
2022/01/13 05:36:19;;;;;;;0.20;0.20;;;4.80;99.90;;;;;;5130089;28;20040;-80
2022/01/13 05:38:45;;;;;;;0.10;0.10;;;4.80;99.90;;;;;;5146629;28;20043;-80
2022/01/13 05:41:12;;;;;;;0.10;0.10;;;5.20;99.90;;;;;;5112901;28;20116;-80
2022/01/13 05:43:39;;;;;;;0.10;0.10;;;4.70;99.90;;;;;;5130538;28;20046;-80
2022/01/13 05:46:06;;;;;;;0.20;0.20;;;4.70;99.90;;;;;;5113348;28;20036;-80
2022/01/13 05:48:33;;;;;;;0.10;0.10;;;4.80;99.90;;;;;;5113546;28;20104;-81
2022/01/13 05:51:01;;;;;;;0.10;0.10;;;4.70;99.90;;;;;;5114494;28;20039;-81
2022/01/13 05:53:28;;;;;;;0.10;0.10;;;4.70;99.90;;;;;;5163704;27;20100;-80
2022/01/13 05:55:54;;;;;;;0.40;0.40;;;4.70;99.90;;;;;;5147132;28;20039;-81
2022/01/13 05:58:21;;;;;;;0.10;0.10;;;4.80;99.90;;;;;;5112800;28;20044;-79
2022/01/13 06:00:48;;;;;;;0.10;0.10;;;4.70;99.90;;;;;;5147049;28;20044;-80
2022/01/13 06:03:14;;;;;;;0.40;0.40;;;4.70;99.90;;;;;;5129371;28;20039;-80
2022/01/13 06:05:41;;;;;;;0.08;0.08;;;4.70;99.90;;;;;;5130379;28;20043;-80
2022/01/13 06:08:08;;;;;;;0.10;0.10;;;4.70;99.90;;;;;;5145987;28;20035;-80
2022/01/13 06:10:38;;;;;;;0.00;0.00;;;5.00;99.90;;;;;;5112722;28;20043;-80
2022/01/13 06:13:05;;;;;;;0.10;0.10;;;5.50;99.90;;;;;;5146797;28;20036;-80
2022/01/13 06:15:34;;;;;;;0.10;0.10;;;4.70;99.90;;;;;;5163115;28;20407;-80
2022/01/13 06:18:01;;;;;;;0.10;0.10;;;4.70;99.90;;;;;;5146451;28;20463;-80
2022/01/13 06:20:28;;;;;;;0.10;0.10;;;4.70;99.90;;;;;;5112563;28;20075;-80
2022/01/13 06:22:55;;;;;;;0.10;0.10;;;4.70;99.90;;;;;;5148129;28;20067;-80
2022/01/13 06:25:22;;;;;;;0.00;0.00;;;4.70;99.90;;;;;;5147304;28;20043;-80
2022/01/13 06:27:48;;;;;;;0.10;0.10;;;4.70;99.90;;;;;;5146070;28;20492;-80
2022/01/13 06:30:16;;;;;;;0.10;0.10;;;4.80;99.90;;;;;;5128758;28;20093;-80
2022/01/13 06:32:43;;;;;;;0.10;0.10;;;4.70;99.90;;;;;;5129366;28;20043;-80
2022/01/13 06:35:11;;;;;;;0.10;0.10;;;5.40;99.90;;;;;;5112947;28;20035;-79
2022/01/13 06:37:38;;;;;;;0.10;0.10;;;4.90;99.90;;;;;;5163649;28;20122;-81
2022/01/13 06:40:06;;;;;;;0.20;0.20;;;4.70;99.90;;;;;;5163226;28;20474;-80
2022/01/13 06:42:33;;;;;;;0.10;0.10;;;4.70;99.90;;;;;;5129019;28;20640;-80
2022/01/13 06:44:59;;;;;;;0.10;0.10;;;4.70;99.90;;;;;;5146290;28;20036;-80
2022/01/13 06:47:26;;;;;;;0.10;0.10;;;4.70;99.90;;;;;;5146290;28;20035;-81
2022/01/13 06:49:53;;;;;;;0.10;0.10;;;4.80;99.90;;;;;;5163083;28;20164;-79
2022/01/13 06:52:19;;;;;;;0.15;0.15;;;4.80;99.90;;;;;;5112010;28;20039;-79
2022/01/13 06:54:46;;;;;;;0.10;0.10;;;5.20;99.90;;;;;;5112579;28;20032;-80
2022/01/13 06:57:13;;;;;;;0.10;0.10;;;5.00;99.90;;;;;;5163235;28;20047;-79
2022/01/13 06:59:40;;;;;;;0.10;0.10;;;5.60;99.90;;;;;;5129337;28;20123;-79
2022/01/13 07:02:06;;;;;;;0.10;0.10;;;4.80;99.90;;;;;;5111737;28;20046;-81
2022/01/13 07:04:34;;;;;;;0.10;0.10;;;4.90;99.90;;;;;;5115353;28;20165;-80
2022/01/13 07:07:00;;;;;;;0.10;0.10;;;4.90;99.90;;;;;;5150391;28;20047;-80
2022/01/13 07:09:27;;;;;;;0.10;0.10;;;4.90;99.90;;;;;;5166852;27;20050;-81
2022/01/13 07:11:54;;;;;;;0.10;0.10;;;5.10;99.90;;;;;;5167132;27;20121;-81
2022/01/13 07:14:21;;;;;;;0.10;0.10;;;5.10;99.90;;;;;;5116057;28;20096;-81
2022/01/13 07:16:48;;;;;;;0.10;0.10;;;5.00;99.90;;;;;;5149887;28;20719;-80
2022/01/13 07:19:15;;;;;;;0.10;0.10;;;5.00;99.90;;;;;;5167256;27;20042;-81
2022/01/13 07:21:44;;;;;;;0.10;0.10;;;5.80;99.90;;;;;;5149220;28;20035;-80
2022/01/13 07:24:11;;;;;;;0.10;0.10;;;5.00;99.90;;;;;;5133438;28;20100;-81
2022/01/13 07:26:39;;;;;;;0.10;0.10;;;5.20;99.90;;;;;;5149186;28;20484;-80
2022/01/13 07:29:07;;;;;;;0.10;0.10;;;5.00;99.90;;;;;;5132828;28;20058;-80
2022/01/13 07:31:36;;;;;;;0.13;0.13;;;5.00;99.90;;;;;;5115615;28;20047;-80
2022/01/13 07:34:03;;;;;;;0.00;0.00;;;5.10;99.90;;;;;;5132480;28;20119;-80
2022/01/13 07:36:30;;;;;;;0.10;0.10;;;5.30;99.90;;;;;;5115016;28;20122;-80
2022/01/13 07:38:57;;;;;;;0.10;0.10;;;5.00;99.90;;;;;;5115413;28;20086;-79
2022/01/13 07:41:23;;;;;;;0.10;0.10;;;5.10;99.90;;;;;;5148871;28;20108;-79
2022/01/13 07:43:54;;;;;;;0.10;0.10;;;5.10;99.90;;;;;;5131753;28;20044;-79
2022/01/13 07:46:22;;;;;;;0.10;0.10;;;5.20;99.90;;;;;;5131567;28;20067;-80
2022/01/13 07:48:50;;;;;;;0.10;0.10;;;5.10;99.90;;;;;;5131277;28;20042;-80
2022/01/13 07:51:17;;;;;;;0.10;0.10;;;5.80;99.90;;;;;;5131217;28;20118;-80
2022/01/13 07:53:44;;;;;;;0.10;0.10;;;5.20;99.90;;;;;;5147460;28;20051;-79
2022/01/13 07:56:11;;;;;;;0.10;0.10;;;5.20;99.90;;;;;;5113513;28;20040;-80
2022/01/13 07:58:38;;;;;;;0.10;0.10;;;5.20;99.90;;;;;;5148421;28;20092;-80
2022/01/13 08:01:04;;;;;;;0.10;0.10;;;5.30;99.90;;;;;;5157195;27;20068;-80
2022/01/13 08:03:31;;;;;;;0.10;0.10;;;5.20;99.90;;;;;;5136834;28;20036;-81
2022/01/13 08:06:00;;;;;;;0.10;0.10;;;5.10;99.90;;;;;;5165947;27;20082;-80
2022/01/13 08:08:27;;;;;;;0.10;0.10;;;5.20;99.90;;;;;;5148562;28;20040;-80
2022/01/13 08:10:54;;;;;;;0.47;0.43;;;5.20;99.90;;;;;;5165790;27;20050;-81
2022/01/13 08:13:20;;;;;;;0.13;0.13;;;5.10;99.90;;;;;;5159016;27;20069;-81
2022/01/13 08:15:51;;;;;;;0.10;0.10;;;5.10;99.90;;;;;;5145118;28;20051;-80
2022/01/13 08:21:03;;;;;;;0.10;0.10;;;5.70;99.90;;;;;;5148394;28;20785;-80
2022/01/13 08:23:31;;;;;;;0.10;0.10;;;5.10;99.90;;;;;;5097690;28;20102;-79
2022/01/13 08:25:58;;;;;;;0.10;0.10;;;5.20;99.90;;;;;;5131182;28;20055;-80
2022/01/13 08:28:28;;;;;;;0.10;0.10;;;5.10;99.90;;;;;;5096341;28;20043;-81
2022/01/13 08:30:56;;;;;;;0.10;0.10;;;5.10;99.90;;;;;;5129778;28;20043;-81
2022/01/13 08:33:23;;;;;;;0.10;0.10;;;5.10;99.90;;;;;;5130009;28;20604;-81
2022/01/13 08:35:52;;;;;;;0.10;0.10;;;5.10;99.90;;;;;;5144931;28;20043;-81
2022/01/13 08:38:23;;;;;;;0.10;0.10;;;5.10;99.90;;;;;;5115785;28;20126;-83
2022/01/13 08:40:56;;;;;;;0.10;0.10;;;5.20;99.90;;;;;;5132302;28;20139;-81
2022/01/13 08:43:26;;;;;;;0.30;0.30;;;5.20;99.90;;;;;;5162921;27;20043;-81
2022/01/13 08:45:53;;;;;;;0.10;0.10;;;5.20;99.90;;;;;;5148799;28;20068;-81
2022/01/13 08:48:20;;;;;;;0.10;0.10;;;5.20;99.90;;;;;;5131916;28;20043;-81
2022/01/13 08:50:48;;;;;;;0.15;0.15;;;5.20;99.90;;;;;;5130848;28;20039;-81
2022/01/13 08:53:15;;;;;;;0.10;0.10;;;5.20;99.90;;;;;;5149470;28;20040;-80
2022/01/13 08:55:42;;;;;;;0.10;0.10;;;5.20;99.90;;;;;;5111118;28;20038;-80
2022/01/13 08:58:09;;;;;;;0.10;0.10;;;5.20;99.90;;;;;;5128882;28;20477;-81
2022/01/13 09:00:37;;;;;;;0.65;0.63;;;5.20;99.90;;;;;;5119047;28;20077;-81
2022/01/13 09:03:07;;;;;;;0.10;0.10;;;5.20;99.90;;;;;;5133389;28;20047;-81
2022/01/13 09:05:36;;;;;;;0.10;0.10;;;5.20;99.90;;;;;;5147299;28;20136;-81
2022/01/13 09:08:04;;;;;;;0.10;0.10;;;5.30;99.90;;;;;;5132215;28;20490;-80
2022/01/13 09:10:31;;;;;;;0.10;0.10;;;5.30;99.90;;;;;;5149579;28;20075;-82
2022/01/13 09:12:58;;;;;;;0.10;0.10;;;5.30;99.90;;;;;;5132080;28;20078;-81
2022/01/13 09:15:35;;;;;;;0.10;0.10;;;5.30;99.90;;;;;;5115459;28;20118;-80
2022/01/13 09:18:09;;;;;;;0.13;0.13;;;5.30;99.90;;;;;;5116788;28;20400;-81
2022/01/13 09:20:38;;;;;;;0.10;0.10;;;5.30;99.90;;;;;;5116658;28;20449;-80
2022/01/13 09:23:05;;;;;;;0.10;0.10;;;5.90;99.90;;;;;;5147387;28;20059;-81
2022/01/13 09:25:32;;;;;;;0.10;0.10;;;5.30;99.90;;;;;;5122327;28;20040;-82
2022/01/13 09:27:59;;;;;;;0.10;0.10;;;5.30;99.90;;;;;;5129205;28;20767;-81
2022/01/13 09:30:26;;;;;;;0.22;0.22;;;5.30;99.90;;;;;;5143815;28;20036;-81
2022/01/13 09:32:53;;;;;;;0.10;0.10;;;5.80;99.90;;;;;;5106155;28;20133;-80
2022/01/13 09:35:20;;;;;;;0.10;0.10;;;5.40;99.90;;;;;;5153184;27;20043;-79
2022/01/13 09:37:48;;;;;;;0.10;0.10;;;5.40;99.90;;;;;;5145187;28;20454;-80
2022/01/13 09:40:15;;;;;;;0.22;0.22;;;5.40;99.90;;;;;;5126538;28;20043;-80
2022/01/13 09:42:44;;;;;;;0.10;0.10;;;5.40;99.90;;;;;;5128478;28;20480;-80
2022/01/13 09:45:13;;;;;;;0.10;0.10;;;5.50;99.90;;;;;;5110540;28;20556;-80
2022/01/13 09:47:41;;;;;;;0.10;0.10;;;5.40;99.90;;;;;;5126009;28;20046;-81
2022/01/13 09:50:10;;;;;;;0.10;0.10;;;5.50;99.90;;;;;;5129517;28;20043;-80
2022/01/13 09:52:38;;;;;;;0.10;0.10;;;5.40;99.90;;;;;;5145406;28;20118;-79
2022/01/13 09:55:09;;;;;;;0.10;0.10;;;5.70;99.90;;;;;;5109000;28;20048;-80
2022/01/13 09:57:41;;;;;;;0.10;0.10;;;5.40;99.90;;;;;;5095453;28;20032;-80
2022/01/13 10:00:08;;;;;;;0.10;0.10;;;5.40;99.90;;;;;;5145070;28;20051;-79
2022/01/13 10:02:35;;;;;;;0.10;0.10;;;5.50;99.90;;;;;;5112045;28;20122;-80
2022/01/13 10:05:02;;;;;;;0.10;0.10;;;5.50;99.90;;;;;;5112251;28;20202;-80
2022/01/13 10:07:34;;;;;;;0.13;0.13;;;5.50;99.90;;;;;;5145558;28;20047;-80
2022/01/13 10:10:06;;;;;;;0.10;0.10;;;5.50;99.90;;;;;;5129197;28;20055;-80
2022/01/13 10:12:38;;;;;;;0.20;0.20;;;5.60;99.90;;;;;;5162645;27;20554;-79
2022/01/13 10:17:50;;;;;;;0.10;0.10;;;5.60;99.90;;;;;;5145902;28;20051;-80
2022/01/13 10:20:19;;;;;;;0.10;0.10;;;5.60;99.90;;;;;;5145710;28;20058;-80
2022/01/13 10:22:47;;;;;;;0.10;0.10;;;5.60;99.90;;;;;;5145169;28;20438;-80
2022/01/13 10:25:33;;;;;;;0.10;0.10;;;5.60;99.90;;;;;;5111813;28;20077;-80
2022/01/13 10:28:18;;;;;;;0.10;0.10;;;5.60;99.90;;;;;;5146201;28;20040;-80
2022/01/13 10:30:48;;;;;;;0.10;0.10;;;5.60;99.90;;;;;;5128174;28;20075;-82
2022/01/13 10:33:22;;;;;;;0.20;0.20;;;5.60;99.90;;;;;;5128936;28;20035;-81
2022/01/13 10:35:52;;;;;;;0.10;0.10;;;5.70;99.90;;;;;;5162611;28;20514;-81
2022/01/13 10:38:20;;;;;;;0.10;0.10;;;5.80;99.90;;;;;;5166118;27;20714;-81
2022/01/13 10:40:49;;;;;;;0.10;0.10;;;5.70;99.90;;;;;;5132496;28;20039;-80
2022/01/13 10:43:22;;;;;;;0.10;0.10;;;5.80;99.90;;;;;;5132053;28;20078;-81
2022/01/13 10:45:50;;;;;;;0.10;0.10;;;5.70;99.90;;;;;;5167002;27;20039;-80
2022/01/13 10:48:24;;;;;;;0.10;0.10;;;5.80;99.90;;;;;;5149943;28;20035;-80
2022/01/13 10:50:55;;;;;;;0.10;0.10;;;5.80;99.90;;;;;;5132718;28;20500;-79
2022/01/13 10:53:25;;;;;;;0.10;0.10;;;5.80;99.90;;;;;;5131995;28;20040;-81
2022/01/13 10:55:56;;;;;;;0.85;0.40;;;5.80;99.90;;;;;;5132883;28;20035;-80
2022/01/13 10:58:28;;;;;;;0.10;0.10;;;5.80;99.90;;;;;;5149651;28;20031;-81
2022/01/13 11:00:56;;;;;;;0.10;0.10;;;5.80;99.90;;;;;;5132402;28;20506;-82
2022/01/13 11:03:25;;;;;;;0.10;0.10;;;5.80;99.90;;;;;;5132962;28;20396;-81
2022/01/13 11:06:04;;;;;;;0.10;0.10;;;5.90;99.90;;;;;;5132210;28;20069;-80
2022/01/13 11:08:41;;;;;;;0.10;0.10;;;5.90;99.90;;;;;;5166031;27;20035;-82
2022/01/13 11:11:27;;;;;;;0.10;0.10;;;5.90;99.90;;;;;;5149826;28;20043;-82
2022/01/13 11:13:57;;;;;;;0.10;0.10;;;5.90;99.90;;;;;;5131047;28;20504;-80
2022/01/13 11:16:26;;;;;;;0.10;0.10;;;5.90;99.90;;;;;;5149115;28;20027;-79
2022/01/13 11:18:53;;;;;;;0.10;0.10;;;5.90;99.90;;;;;;5131844;28;20042;-81
2022/01/13 11:21:20;;;;;;;0.05;0.05;;;5.90;99.90;;;;;;5132897;28;20035;-80
2022/01/13 11:23:50;;;;;;;0.00;0.00;;;5.90;99.90;;;;;;5131204;28;20087;-79
2022/01/13 11:26:17;;;;;;;0.10;0.10;;;5.90;99.90;;;;;;5132102;28;20043;-81
2022/01/13 11:28:44;;;;;;;0.10;0.10;;;5.90;99.90;;;;;;5130679;28;20506;-80
2022/01/13 11:31:11;;;;;;;0.10;0.10;;;5.90;99.90;;;;;;5115192;28;20043;-81
2022/01/13 11:33:39;;;;;;;0.10;0.10;;;5.90;99.90;;;;;;5131872;28;20036;-81
2022/01/13 11:36:08;;;;;;;0.10;0.10;;;5.90;99.90;;;;;;5131574;28;20036;-81
2022/01/13 11:38:35;;;;;;;0.10;0.10;;;5.90;99.90;;;;;;5114790;28;20507;-80
2022/01/13 11:41:04;;;;;;;0.10;0.10;;;5.90;99.90;;;;;;5132297;28;20081;-81
2022/01/13 11:43:40;;;;;;;0.10;0.10;;;5.90;99.90;;;;;;5131466;28;20039;-80
2022/01/13 11:46:22;;;;;;;0.10;0.10;;;5.80;99.90;;;;;;5131431;28;20066;-80
2022/01/13 11:49:08;;;;;;;0.10;0.10;;;5.90;99.90;;;;;;5130155;28;20469;-81
2022/01/13 11:54:35;;;;;;;0.10;0.10;;;5.90;99.90;;;;;;5148759;28;20048;-79
2022/01/13 11:57:14;;;;;;;0.10;0.10;;;5.90;99.90;;;;;;5131412;28;20063;-80
2022/01/13 12:00:01;;;;;;;0.10;0.10;;;5.90;99.90;;;;;;5142903;28;20035;-80
2022/01/13 12:02:30;;;;;;;0.63;0.63;;;5.90;99.90;;;;;;5131477;28;20062;-80
2022/01/13 12:05:14;;;;;;;0.10;0.10;;;5.90;99.90;;;;;;5148312;28;20128;-82
2022/01/13 12:07:45;;;;;;;0.20;0.20;;;5.90;99.90;;;;;;5131734;28;20046;-81
2022/01/13 12:10:24;;;;;;;0.10;0.10;;;6.00;99.90;;;;;;5130713;28;20034;-81
2022/01/13 12:12:52;;;;;;;0.10;0.10;;;6.00;99.90;;;;;;5148575;27;20079;-81
2022/01/13 12:15:31;;;;;;;0.10;0.10;;;6.00;99.90;;;;;;5119769;28;20754;-80
2022/01/13 12:18:05;;;;;;;0.10;0.10;;;6.00;99.90;;;;;;5165336;27;20036;-81
2022/01/13 12:23:27;;;;;;;;;;;6.00;99.90;;;;;;5148477;28;20063;-81
2022/01/13 12:25:54;;;;;;;0.10;0.10;;;6.00;99.90;;;;;;5130772;28;19920;-80
2022/01/13 12:28:26;;;;;;;0.30;0.22;;;6.00;99.90;;;;;;5130804;28;20053;-80
2022/01/13 12:30:53;;;;;;;0.10;0.10;;;6.00;99.90;;;;;;5148333;27;20126;-81
2022/01/13 12:33:31;;;;;;;0.00;0.00;;;6.10;99.90;;;;;;5113948;28;20111;-81
2022/01/13 12:35:58;;;;;;;0.40;0.25;;;6.20;99.90;;;;;;5164695;27;20043;-81
2022/01/13 12:38:27;;;;;;;0.10;0.10;;;6.10;99.90;;;;;;5130836;28;20122;-82
2022/01/13 12:41:23;;;;;;;0.10;0.10;;;6.10;99.90;;;;;;5130034;28;20042;-79
2022/01/13 12:46:22;;;;;;;0.10;0.10;;;6.10;99.90;;;;;;5130775;28;20135;-81
2022/01/13 12:48:50;;;;;;;0.10;0.10;;;6.10;99.90;;;;;;5130633;28;20051;-80
2022/01/13 12:51:25;;;;;;;0.03;0.03;;;6.10;99.90;;;;;;5147742;28;20055;-81
2022/01/13 12:53:54;;;;;;;0.65;0.52;;;6.10;99.90;;;;;;5130298;28;20050;-79
2022/01/13 12:56:23;;;;;;;0.10;0.10;;;6.20;99.90;;;;;;5127579;28;20032;-81
2022/01/13 12:59:02;;;;;;;8.57;1.55;;;6.10;99.90;;;;;;5110233;28;20075;-80
2022/01/13 13:01:31;;;;;;;0.10;0.10;;;6.20;99.90;;;;;;5110563;28;20043;-80
2022/01/13 13:04:02;;;;;;;0.10;0.10;;;6.10;99.90;;;;;;5093272;28;20510;-81
2022/01/13 13:06:31;;;;;;;0.10;0.10;;;6.20;99.90;;;;;;5110415;28;20134;-81
2022/01/13 13:09:12;;;;;;;0.10;0.10;;;6.20;99.90;;;;;;5110005;28;20126;-81
2022/01/13 13:11:42;;;;;;;0.10;0.10;;;6.20;99.90;;;;;;5143711;28;20079;-81
2022/01/13 13:14:18;;;;;;;0.10;0.10;;;6.20;99.90;;;;;;5151697;27;20039;-80
2022/01/13 13:16:48;;;;;;;0.10;0.10;;;6.20;99.90;;;;;;5164384;27;20042;-81
2022/01/13 13:19:15;;;;;;;0.10;0.10;;;6.20;99.90;;;;;;5181158;27;20039;-81
2022/01/13 13:21:42;;;;;;;0.10;0.10;;;6.50;99.90;;;;;;5130087;28;20114;-81
2022/01/13 13:24:08;;;;;;;0.10;0.10;;;6.30;99.90;;;;;;5112539;28;20549;-80
2022/01/13 13:26:35;;;;;;;0.03;0.03;;;6.40;99.90;;;;;;5130034;28;20119;-80
2022/01/13 13:29:02;;;;;;;0.08;0.08;;;6.30;99.90;;;;;;5112287;28;20039;-80
2022/01/13 13:31:30;;;;;;;0.10;0.10;;;6.40;99.90;;;;;;5109566;28;20139;-83
2022/01/13 13:34:01;;;;;;;0.10;0.10;;;6.40;99.90;;;;;;5108840;28;20127;-80
2022/01/13 13:36:30;;;;;;;0.10;0.10;;;6.40;99.90;;;;;;5125970;28;20544;-81
2022/01/13 13:39:04;;;;;;;0.15;0.15;;;6.50;99.90;;;;;;5125846;28;20075;-79
2022/01/13 13:41:35;;;;;;;0.10;0.10;;;6.50;99.90;;;;;;5129552;28;20078;-80